Aeroporto :
LOGIN :

Iscrizione | Disclaimer

   EN    FR    IT 

 










Sommario :    VFR   VFR Marginale   IFR   IFR Intensivo   IFR Molto Intensivo
Visibilità : 
Base nubi : 
>= 8 km
>= 3000ft
5 / 8 km
1000 / 3000 ft
1500m / 5 km
500 / 1000 ft
800 / 1500m
200 / 500 ft
< 800m
< 200 ft
Simboli :   Temporali  Nebbia  Neve Forte  Precipitazioni Forti  Vento > 20 kt
SIGMETs :   Varie  Temporali  Ghiacco  Turbolenza  Onda orograficha  Ceneri Vulcaniche







- Altitudine del aeroporto : 584 ft
- Carte del aeroporto


LFPV - Villacoublay Vélizy

ULTIMO METAR :
  • 172230Z AUTO 18003KT 9999 SCT003 BKN007 BKN016 17/17 Q1009 TEMPO 4000 SHRA SCT012 BKN030TCU

METARs OBSOLETI :
  • 172200Z AUTO 18003KT 9999 -RA BKN006 BKN047 BKN062 17/17 Q1009 TEMPO 4000 SHRA SCT012 BKN030TCU
  • 172130Z AUTO 20003KT 9999 BKN008/// BKN016/// BKN120/// ///TCU 17/16 Q1010 TEMPO 4000 SHRA SCT012 BKN030TCU
  • 172100Z AUTO 25003KT 9999 BKN012 BKN080 BKN110 17/17 Q1010 TEMPO 4000 SHRA SCT012 BKN030TCU
  • 172030Z AUTO 28004KT 9999 -RA FEW034 OVC110 17/17 Q1010 TEMPO 4000 SHRA SCT012 BKN030TCU
  • 172000Z AUTO 27006KT 9999 -RA SCT031/// BKN049/// BKN062/// ///TCU 17/17 Q1010 TEMPO 2500 -RADZ OVC004

TAF TAF LFPV
Valido dal 17 a 21 ore il 18 a 21 ore UTC


172000Z 1721/1821 25008KT 9999 SCT030 BKN040
TEMPO 1721/1801 4000 SHRA SCT012 BKN030TCU
BECMG 1801/1802 BKN004
BECMG 1804/1806 BKN015
TEMPO 1806/1813 22010G20KT 3000 SHRA BKN012 BKN025TCU
FM181330 27010KT 9999 SCT020
Nessun NOTAM noto per questo aeroporto.



MetMap, La meteo Aeronautica in un colpo d'occhio ! - Copyright ORBIFLY Dicembre 2007 - Disclaimer

ORBIFLY MET'MAP TEAM :

Programmazione e sviluppo : Alexandra Zaïnal
Concezione e sviluppo : Baudouin d'Aumeries
Co-Programmazione e sviluppo : Marc-Olivier Méhu
Supporto tecnico e logistico : Manuel Goepfert
Aiuto per la traduzione : Arnaldo La Scala

Contatto : metmap@orbifly.com




FONTI E CREDITI :

   NOAA